Time;durP1;ratioP1;P1;durP2;ratioP2;P2;SDS_P1;SDS_P2;PMS_P1;PMS_P2;Temp;Humidity;BMP_temperature;BMP_pressure;BME280_temperature;BME280_humidity;BME280_pressure;Samples;Min_cycle;Max_cycle;Signal;HPM_P1;HPM_P2
2023/07/03 00:00:17;;;;;;;;;;;22.00;46.50;;;18.09;56.41;95396.78;4952768;28;20008;-49
2023/07/03 00:02:51;;;;;;;;;;;22.00;46.50;;;18.11;56.84;95401.84;4949328;28;19965;-51
2023/07/03 00:05:17;;;;;;;;;;;22.00;46.40;;;18.12;57.04;95409.63;4952930;28;19910;-50
2023/07/03 00:07:42;;;;;;;;;;;22.00;46.20;;;18.12;56.99;95401.53;4951525;28;19941;-48
2023/07/03 00:10:09;;;;;;;;;;;22.00;46.10;;;18.12;56.53;95401.53;4952887;28;19960;-52
2023/07/03 00:12:35;;;;;;;;;;;22.00;46.00;;;18.13;56.80;95397.72;4951429;28;19917;-47
2023/07/03 00:15:01;;;;;;;;;;;22.00;46.00;;;18.10;57.00;95392.97;4951822;29;19917;-52
2023/07/03 00:17:27;;;;;;;;;;;22.00;45.90;;;18.09;56.27;95396.00;4952720;28;20289;-51
2023/07/03 00:19:52;;;;;;;;;;;22.00;45.90;;;18.09;56.02;95401.41;4952037;28;19914;-51
2023/07/03 00:22:18;;;;;;;;;;;22.00;45.80;;;18.09;56.15;95402.19;4952028;28;19911;-49
2023/07/03 00:24:44;;;;;;;;;;;22.00;45.70;;;18.10;56.00;95397.56;4951085;28;20116;-47
2023/07/03 00:27:10;;;;;;;;;;;22.00;45.60;;;18.13;56.25;95403.13;4952542;28;19910;-49
2023/07/03 00:29:35;;;;;;;;;;;22.00;45.60;;;18.16;56.06;95399.78;4952649;28;20293;-49
2023/07/03 00:32:01;;;;;;;;;;;22.00;45.50;;;18.19;56.37;95403.78;4951437;28;19914;-48
2023/07/03 00:34:27;;;;;;;;;;;22.00;46.10;;;18.17;56.50;95408.66;4952722;28;19918;-49
2023/07/03 00:36:54;;;;;;;;;;;22.00;45.50;;;18.14;56.54;95404.69;4948039;28;19918;-47
2023/07/03 00:39:20;;;;;;;;;;;22.00;45.40;;;18.10;57.03;95401.06;4944071;29;19942;-48
2023/07/03 00:41:46;;;;;;;;;;;22.00;45.40;;;18.10;57.15;95400.28;4952058;28;19918;-47
2023/07/03 00:44:17;;;;;;;;;;;22.00;45.40;;;18.06;56.45;95405.50;4950657;29;19910;-49
2023/07/03 00:46:48;;;;;;;;;;;22.00;45.40;;;18.04;56.61;95405.03;4951261;29;20009;-54
2023/07/03 00:49:15;;;;;;;;;;;22.00;45.30;;;18.02;56.68;95399.97;4951663;28;20372;-47
2023/07/03 00:51:46;;;;;;;;;;;21.90;45.20;;;18.03;56.79;95406.94;4953650;28;20052;-52
2023/07/03 00:54:12;;;;;;;;;;;22.00;45.30;;;17.98;56.92;95408.97;4956065;28;20003;-49
2023/07/03 00:56:39;;;;;;;;;;;21.90;45.20;;;17.97;57.15;95404.69;4955005;28;19964;-49
2023/07/03 00:59:05;;;;;;;;;;;21.90;45.80;;;17.94;56.49;95402.63;4955962;28;19917;-49
2023/07/03 01:01:49;;;;;;;;;;;21.90;45.20;;;17.92;57.37;95402.94;4954709;28;19956;-50
2023/07/03 01:04:30;;;;;;;;;;;21.90;45.20;;;17.93;57.66;95409.16;4947702;28;20073;-49
2023/07/03 01:07:13;;;;;;;;;;;21.90;45.20;;;17.90;57.02;95397.09;4953358;28;20400;-51
2023/07/03 01:09:53;;;;;;;;;;;21.80;45.20;;;17.84;56.92;95402.94;4955692;28;20295;-49
2023/07/03 01:12:23;;;;;;;;;;;21.80;45.20;;;17.83;57.64;95401.34;4953672;28;20381;-51
2023/07/03 01:14:50;;;;;;;;;;;21.70;45.10;;;17.79;57.19;95410.06;4954267;28;19914;-50
2023/07/03 01:17:19;;;;;;;;;;;21.70;45.20;;;17.79;57.57;95409.25;4955575;28;19920;-51
2023/07/03 01:19:48;;;;;;;;;;;21.70;45.20;;;17.80;57.87;95410.88;4954498;28;19918;-51
2023/07/03 01:22:29;;;;;;;;;;;21.70;45.20;;;17.77;57.89;95411.50;4953675;28;19937;-50
2023/07/03 01:25:03;;;;;;;;;;;21.70;45.20;;;17.75;57.97;95414.47;4954418;28;20567;-52
2023/07/03 01:27:39;;;;;;;;;;;21.60;45.20;;;17.76;57.92;95412.56;4954427;28;19910;-50
2023/07/03 01:30:12;;;;;;;;;;;21.70;45.30;;;17.73;58.04;95408.59;4954347;28;19910;-54
2023/07/03 01:32:39;;;;;;;;;;;21.60;45.20;;;17.65;57.60;95409.38;4962423;28;19910;-48
2023/07/03 01:35:08;;;;;;;;;;;21.60;45.20;;;17.69;58.23;95412.22;4953990;28;20392;-50
2023/07/03 01:37:40;;;;;;;;;;;21.60;45.30;;;17.66;58.25;95410.97;4953778;28;19957;-50
2023/07/03 01:40:11;;;;;;;;;;;21.60;45.20;;;17.62;58.21;95411.91;4953899;28;20017;-51
2023/07/03 01:42:40;;;;;;;;;;;21.60;45.30;;;17.62;58.54;95414.59;4952544;28;19960;-54
2023/07/03 01:45:08;;;;;;;;;;;21.50;45.20;;;17.61;58.27;95415.69;4953943;28;19918;-51
2023/07/03 01:47:34;;;;;;;;;;;21.50;45.30;;;17.57;58.32;95419.00;4954070;28;19910;-52
2023/07/03 01:50:00;;;;;;;;;;;21.50;45.30;;;17.57;58.81;95413.63;4953970;28;20393;-47
2023/07/03 01:52:41;;;;;;;;;;;21.50;45.30;;;17.61;58.93;95407.59;4954318;28;19964;-52
2023/07/03 01:55:49;;;;;;;;;;;21.50;45.30;;;17.60;59.12;95411.41;4952693;28;19910;-51
2023/07/03 01:58:39;;;;;;;;;;;21.50;45.40;;;17.54;58.30;95414.25;4954898;28;19917;-49
2023/07/03 02:01:11;;;;;;;;;;;21.50;45.40;;;17.52;58.83;95410.31;4951935;28;19914;-51
2023/07/03 02:03:54;;;;;;;;;;;21.40;45.40;;;17.53;59.25;95403.81;4952501;28;20021;-51
2023/07/03 02:06:33;;;;;;;;;;;21.40;45.40;;;17.52;59.47;95404.91;4954379;28;19917;-52
2023/07/03 02:09:05;;;;;;;;;;;21.40;45.40;;;17.48;58.96;95407.41;4953840;28;19921;-54
2023/07/03 02:11:31;;;;;;;;;;;21.40;45.40;;;17.47;59.31;95397.75;4954496;28;20284;-48
2023/07/03 02:13:56;;;;;;;;;;;21.40;45.50;;;17.45;59.31;95405.34;4952746;28;19917;-50
2023/07/03 02:16:23;;;;;;;;;;;21.40;45.40;;;17.43;59.84;95401.41;4954569;28;19922;-50
2023/07/03 02:18:49;;;;;;;;;;;21.30;45.40;;;17.41;59.47;95407.09;4953308;28;19913;-51
2023/07/03 02:21:15;;;;;;;;;;;21.30;45.40;;;17.40;59.65;95408.19;4953682;28;19918;-48
2023/07/03 02:23:43;;;;;;;;;;;21.30;45.40;;;17.33;59.94;95408.66;4954514;28;20289;-51
2023/07/03 02:26:10;;;;;;;;;;;21.30;45.50;;;17.31;60.03;95410.06;4952216;28;20281;-48
2023/07/03 02:28:36;;;;;;;;;;;21.30;45.50;;;17.29;60.04;95404.97;4953184;28;19914;-50
2023/07/03 02:31:03;;;;;;;;;;;21.30;45.50;;;17.25;59.96;95405.91;4953275;28;20343;-50
2023/07/03 02:33:29;;;;;;;;;;;21.20;45.60;;;17.26;60.40;95408.28;4954177;28;20292;-48
2023/07/03 02:35:55;;;;;;;;;;;21.20;45.60;;;17.21;60.38;95407.66;4953829;28;19920;-47
2023/07/03 02:38:21;;;;;;;;;;;21.20;45.60;;;17.17;60.29;95403.97;4953057;28;19910;-50
2023/07/03 02:40:47;;;;;;;;;;;21.20;45.70;;;17.14;60.64;95410.78;4953852;28;19965;-49
2023/07/03 02:43:13;;;;;;;;;;;21.10;45.70;;;17.15;60.70;95408.91;4947831;28;19918;-49
2023/07/03 02:45:41;;;;;;;;;;;21.10;45.70;;;17.12;60.73;95407.63;4953914;28;19922;-48
2023/07/03 02:48:10;;;;;;;;;;;21.10;45.70;;;17.10;61.00;95409.81;4952588;28;19914;-48
2023/07/03 02:50:35;;;;;;;;;;;21.10;45.80;;;17.05;61.58;95409.97;4952635;28;19914;-54
2023/07/03 02:53:02;;;;;;;;;;;21.00;45.80;;;17.03;62.00;95412.94;4953953;28;20332;-48
2023/07/03 02:55:28;;;;;;;;;;;21.00;45.80;;;16.98;62.78;95410.38;4945892;28;19914;-53
2023/07/03 02:57:54;;;;;;;;;;;21.00;45.80;;;16.94;64.12;95417.50;4949126;28;20004;-54
2023/07/03 03:00:20;;;;;;;;;;;21.00;45.90;;;16.90;63.20;95418.44;4953505;28;20055;-54
2023/07/03 03:02:47;;;;;;;;;;;21.00;46.00;;;16.85;64.85;95416.66;4952509;28;19914;-54
2023/07/03 03:05:13;;;;;;;;;;;20.90;46.00;;;16.80;66.43;95414.91;4953698;28;19910;-54
2023/07/03 03:07:39;;;;;;;;;;;20.90;46.00;;;16.71;65.94;95411.31;4952258;28;19956;-54
2023/07/03 03:10:06;;;;;;;;;;;20.90;46.00;;;16.66;66.29;95412.22;4952332;28;19914;-47
2023/07/03 03:12:31;;;;;;;;;;;20.80;46.10;;;16.65;66.04;95417.94;4952556;28;19973;-53
2023/07/03 03:14:58;;;;;;;;;;;20.80;46.20;;;16.62;65.71;95421.22;4953160;28;19909;-51
2023/07/03 03:17:23;;;;;;;;;;;20.80;46.30;;;16.60;65.82;95412.66;4953420;28;19920;-54
2023/07/03 03:19:50;;;;;;;;;;;20.80;46.40;;;16.58;67.86;95414.88;4951250;28;19969;-54
2023/07/03 03:22:16;;;;;;;;;;;20.70;47.00;;;16.53;67.71;95415.78;4952875;28;19914;-51
2023/07/03 03:24:42;;;;;;;;;;;20.70;46.50;;;16.49;68.17;95417.50;4951001;28;20373;-54
2023/07/03 03:27:08;;;;;;;;;;;20.70;46.60;;;16.47;68.58;95416.22;4953194;28;19910;-52
2023/07/03 03:29:36;;;;;;;;;;;20.70;46.60;;;16.42;68.75;95412.56;4951995;28;19937;-50
2023/07/03 03:32:03;;;;;;;;;;;20.60;46.70;;;16.41;70.21;95418.22;4951524;28;19914;-54
2023/07/03 03:34:32;;;;;;;;;;;20.60;46.90;;;16.37;69.74;95412.69;4953571;28;19980;-51
2023/07/03 03:36:58;;;;;;;;;;;20.60;47.00;;;16.32;69.45;95415.47;4952117;28;20288;-54
2023/07/03 03:39:24;;;;;;;;;;;20.50;47.00;;;16.22;69.68;95413.03;4953166;28;19914;-53
2023/07/03 03:41:49;;;;;;;;;;;20.50;47.10;;;16.24;70.15;95408.16;4952821;28;20432;-51
2023/07/03 03:44:15;;;;;;;;;;;20.40;47.10;;;16.22;70.14;95409.56;4952031;28;19914;-52
2023/07/03 03:46:41;;;;;;;;;;;20.40;47.30;;;16.19;70.54;95410.94;4952758;28;19918;-52
2023/07/03 03:49:09;;;;;;;;;;;20.40;47.40;;;16.15;70.49;95409.97;4947993;28;19910;-54
2023/07/03 03:51:35;;;;;;;;;;;20.40;47.40;;;16.15;71.20;95418.81;4948488;28;19973;-50
2023/07/03 03:54:00;;;;;;;;;;;20.30;47.40;;;16.15;70.67;95418.03;4953313;28;19910;-51
2023/07/03 03:56:26;;;;;;;;;;;20.30;47.50;;;16.16;71.26;95414.25;4952133;28;19922;-53
2023/07/03 03:58:52;;;;;;;;;;;20.30;47.60;;;16.14;70.82;95424.53;4953229;28;20320;-51
2023/07/03 04:01:18;;;;;;;;;;;20.40;47.60;;;16.14;70.01;95419.94;4948593;28;19917;-54
2023/07/03 04:03:44;;;;;;;;;;;20.40;47.70;;;16.19;68.75;95416.31;4952886;28;20300;-53
2023/07/03 04:06:10;;;;;;;;;;;20.40;47.70;;;16.24;68.73;95420.81;4952955;28;19929;-53
2023/07/03 04:08:36;;;;;;;;;;;20.40;47.70;;;16.29;68.46;95424.16;4952116;28;19917;-54
2023/07/03 04:11:03;;;;;;;;;;;20.50;47.80;;;16.36;68.34;95424.53;4952705;28;19914;-53
2023/07/03 04:13:28;;;;;;;;;;;20.50;47.80;;;16.40;67.71;95422.03;4952114;28;20004;-54
2023/07/03 04:15:54;;;;;;;;;;;20.50;47.70;;;16.43;70.25;95421.41;4952654;28;20393;-53
2023/07/03 04:18:21;;;;;;;;;;;20.60;47.80;;;16.46;68.29;95420.03;4952841;29;19964;-52
2023/07/03 04:20:47;;;;;;;;;;;20.60;47.70;;;16.48;68.80;95418.59;4951033;28;19937;-54
2023/07/03 04:23:13;;;;;;;;;;;20.70;47.70;;;16.53;67.37;95425.75;4953076;28;19917;-48
2023/07/03 04:25:42;;;;;;;;;;;20.70;47.70;;;16.59;67.94;95432.59;4952316;28;19910;-53
2023/07/03 04:28:09;;;;;;;;;;;20.80;47.70;;;16.63;68.36;95437.03;4939459;28;19910;-55
2023/07/03 04:30:35;;;;;;;;;;;20.80;47.60;;;16.67;67.61;95431.84;4955287;28;20328;-50
2023/07/03 04:33:01;;;;;;;;;;;20.90;47.60;;;16.74;67.39;95436.81;4956705;28;19917;-51
2023/07/03 04:35:27;;;;;;;;;;;21.00;47.60;;;16.81;67.07;95439.88;4956279;28;19921;-50
2023/07/03 04:37:52;;;;;;;;;;;21.00;47.50;;;16.88;67.28;95432.16;4955763;28;20336;-54
2023/07/03 04:40:18;;;;;;;;;;;21.20;47.50;;;16.94;66.57;95440.91;4956049;28;19925;-53
2023/07/03 04:42:45;;;;;;;;;;;21.20;47.40;;;16.98;65.73;95434.59;4955054;28;20337;-54
2023/07/03 04:45:13;;;;;;;;;;;21.20;47.40;;;17.06;66.33;95433.06;4955930;28;20011;-55
2023/07/03 04:47:39;;;;;;;;;;;21.30;47.40;;;17.12;65.63;95439.91;4954893;28;20365;-53
2023/07/03 04:50:14;;;;;;;;;;;21.40;48.00;;;17.16;65.30;95435.47;4954629;28;19945;-52
2023/07/03 04:52:41;;;;;;;;;;;21.50;47.30;;;17.24;65.11;95432.06;4955887;28;19917;-53
2023/07/03 04:55:08;;;;;;;;;;;21.50;47.20;;;17.29;65.09;95436.50;4953791;28;20361;-54
2023/07/03 04:57:42;;;;;;;;;;;21.60;47.10;;;17.38;64.95;95439.22;4955991;28;19917;-50
2023/07/03 05:00:15;;;;;;;;;;;21.70;47.00;;;17.43;64.22;95441.78;4955594;28;19910;-49
2023/07/03 05:02:51;;;;;;;;;;;21.80;47.00;;;17.52;63.71;95438.00;4954893;28;20344;-50
2023/07/03 05:05:18;;;;;;;;;;;21.90;46.90;;;17.59;63.39;95440.25;4955956;28;19910;-49
2023/07/03 05:07:45;;;;;;;;;;;22.00;46.90;;;17.65;62.74;95432.81;4953768;28;20255;-55
2023/07/03 05:10:15;;;;;;;;;;;22.00;46.80;;;17.71;62.64;95435.06;4970322;28;20344;-55
2023/07/03 05:12:42;;;;;;;;;;;22.10;46.60;;;17.81;62.50;95444.78;4954892;28;20391;-54
2023/07/03 05:15:10;;;;;;;;;;;22.20;47.20;;;17.89;62.58;95440.50;4956069;28;19940;-55
2023/07/03 05:17:38;;;;;;;;;;;22.30;46.60;;;17.97;62.35;95448.59;4956275;28;19921;-50
2023/07/03 05:20:17;;;;;;;;;;;22.30;46.50;;;18.04;62.76;95448.13;4951586;28;19960;-51
2023/07/03 05:22:44;;;;;;;;;;;22.50;46.40;;;18.10;62.27;95452.28;4947936;28;19917;-49
2023/07/03 05:25:12;;;;;;;;;;;22.50;46.30;;;18.12;62.16;95447.38;4954392;28;20361;-51
2023/07/03 05:27:39;;;;;;;;;;;22.60;46.30;;;18.20;61.97;95451.16;4955268;28;19945;-48
2023/07/03 05:30:08;;;;;;;;;;;22.70;46.20;;;18.29;61.54;95453.88;4954856;28;19910;-53
2023/07/03 05:32:35;;;;;;;;;;;22.70;46.10;;;18.39;61.82;95451.66;4954002;28;19932;-53
2023/07/03 05:35:04;;;;;;;;;;;22.90;46.10;;;18.44;61.48;95453.41;4955162;28;19925;-51
2023/07/03 05:37:30;;;;;;;;;;;22.90;46.00;;;18.51;60.32;95448.31;4954454;28;19957;-53
2023/07/03 05:39:56;;;;;;;;;;;23.00;45.90;;;18.53;59.74;95456.91;4955116;28;19910;-53
2023/07/03 05:42:23;;;;;;;;;;;23.10;45.80;;;18.44;58.68;95456.09;4955701;28;19910;-50
2023/07/03 05:44:49;;;;;;;;;;;23.10;45.70;;;18.48;59.55;95451.66;4952936;28;20357;-50
2023/07/03 05:47:16;;;;;;;;;;;23.20;45.50;;;18.50;59.18;95452.13;4955370;28;19977;-52
2023/07/03 05:49:43;;;;;;;;;;;23.30;45.40;;;18.38;59.13;95460.84;4952474;28;19910;-54
2023/07/03 05:52:11;;;;;;;;;;;23.30;45.20;;;18.46;59.34;95461.97;4954002;28;20009;-54
2023/07/03 05:54:37;;;;;;;;;;;23.40;45.20;;;18.55;58.86;95472.75;4953376;28;19945;-53
2023/07/03 05:57:07;;;;;;;;;;;23.40;45.10;;;18.62;58.39;95473.09;4954977;28;19914;-49
2023/07/03 05:59:36;;;;;;;;;;;23.40;45.00;;;18.77;58.37;95478.03;4953317;28;19991;-49
2023/07/03 06:02:06;;;;;;;;;;;23.50;45.10;;;18.87;58.38;95480.38;4952308;28;19917;-55
2023/07/03 06:04:33;;;;;;;;;;;23.60;44.90;;;18.98;58.20;95471.97;4954294;28;20013;-55
2023/07/03 06:07:00;;;;;;;;;;;23.80;44.90;;;19.00;56.91;95483.22;4952615;28;19915;-52
2023/07/03 06:09:28;;;;;;;;;;;23.90;44.70;;;19.06;57.05;95471.94;4953017;28;19918;-50
2023/07/03 06:11:55;;;;;;;;;;;23.90;44.50;;;19.14;56.75;95483.81;4953647;28;19968;-53
2023/07/03 06:14:21;;;;;;;;;;;24.10;44.40;;;19.22;56.26;95480.31;4951089;28;19921;-54
2023/07/03 06:16:49;;;;;;;;;;;24.20;44.30;;;19.33;55.80;95475.34;4953153;28;20377;-50
2023/07/03 06:19:18;;;;;;;;;;;24.20;44.10;;;19.42;56.58;95485.00;4951753;28;19925;-51
2023/07/03 06:21:44;;;;;;;;;;;24.40;44.10;;;19.55;56.44;95474.31;4953714;28;19953;-50
2023/07/03 06:24:13;;;;;;;;;;;24.40;44.00;;;19.61;54.79;95476.50;4952861;28;19937;-51
2023/07/03 06:26:40;;;;;;;;;;;24.50;43.90;;;19.60;52.99;95477.63;4951719;28;19914;-52
2023/07/03 06:29:07;;;;;;;;;;;24.70;43.70;;;19.52;53.22;95480.38;4953019;28;19914;-50
2023/07/03 06:31:34;;;;;;;;;;;24.70;43.40;;;19.63;53.41;95479.69;4952040;28;20013;-48
2023/07/03 06:34:00;;;;;;;;;;;24.80;43.20;;;19.66;53.25;95481.00;4954415;28;20359;-51
2023/07/03 06:36:25;;;;;;;;;;;24.80;43.00;;;19.58;52.05;95484.47;4954168;28;19957;-52
2023/07/03 06:38:57;;;;;;;;;;;24.90;42.80;;;19.70;52.26;95486.53;4952109;28;19910;-55
2023/07/03 06:41:28;;;;;;;;;;;25.00;42.50;;;19.78;52.09;95483.81;4953804;28;19914;-55
2023/07/03 06:43:55;;;;;;;;;;;25.10;42.40;;;19.73;51.32;95475.06;4952532;28;19914;-54
2023/07/03 06:46:21;;;;;;;;;;;25.20;42.20;;;19.75;50.66;95472.84;4953792;28;19976;-51
2023/07/03 06:48:47;;;;;;;;;;;25.30;41.90;;;19.90;50.13;95480.41;4952062;28;19945;-54
2023/07/03 06:51:14;;;;;;;;;;;25.40;41.70;;;19.98;50.40;95479.56;4952136;28;19949;-52
2023/07/03 06:53:41;;;;;;;;;;;25.50;41.50;;;20.04;49.19;95482.88;4953661;28;19972;-51
2023/07/03 06:56:08;;;;;;;;;;;25.60;41.30;;;20.15;49.47;95485.97;4951117;28;20443;-51
2023/07/03 06:58:35;;;;;;;;;;;25.60;41.10;;;20.32;49.61;95480.47;4952570;28;19972;-49
2023/07/03 07:01:13;;;;;;;;;;;25.70;41.00;;;20.48;49.13;95476.03;4949249;28;19965;-54
2023/07/03 07:03:39;;;;;;;;;;;25.90;40.90;;;20.51;48.41;95482.72;4953733;28;19914;-54
2023/07/03 07:06:16;;;;;;;;;;;25.90;40.70;;;20.58;48.32;95483.00;4953041;28;20378;-54
2023/07/03 07:08:43;;;;;;;;;;;26.00;40.60;;;20.46;47.85;95482.91;4952677;28;20001;-55
2023/07/03 07:11:13;;;;;;;;;;;26.00;40.30;;;20.49;48.30;95483.03;4952950;28;20313;-49
2023/07/03 07:13:46;;;;;;;;;;;25.90;40.10;;;20.53;47.71;95485.91;4951632;28;20296;-51
2023/07/03 07:16:14;;;;;;;;;;;25.80;40.00;;;20.50;48.55;95486.53;4951925;28;19914;-49
2023/07/03 07:18:41;;;;;;;;;;;25.80;40.00;;;20.27;47.96;95489.53;4952203;28;20000;-48
2023/07/03 07:21:08;;;;;;;;;;;25.80;39.80;;;20.41;48.34;95494.72;4952403;28;19910;-49
2023/07/03 07:23:34;;;;;;;;;;;25.80;39.70;;;20.45;48.26;95489.44;4953469;28;19914;-49
2023/07/03 07:26:00;;;;;;;;;;;25.80;39.80;;;20.50;48.55;95487.34;4952153;28;19910;-52
2023/07/03 07:28:26;;;;;;;;;;;25.80;39.80;;;20.52;48.52;95489.72;4953292;28;19941;-52
2023/07/03 07:30:52;;;;;;;;;;;25.80;39.80;;;20.46;47.59;95485.59;4949989;28;19953;-52
2023/07/03 07:33:18;;;;;;;;;;;25.80;39.80;;;20.44;48.19;95483.25;4946420;28;19916;-55
2023/07/03 07:35:44;;;;;;;;;;;25.70;39.60;;;20.47;48.27;95484.50;4952889;28;20036;-49
2023/07/03 07:38:11;;;;;;;;;;;25.80;39.50;;;20.46;48.74;95486.38;4952210;28;19930;-53
2023/07/03 07:40:37;;;;;;;;;;;25.80;39.50;;;20.49;47.58;95484.94;4952652;28;19910;-51
2023/07/03 07:43:03;;;;;;;;;;;25.70;39.40;;;20.54;47.89;95476.66;4952306;28;19917;-53
2023/07/03 07:45:30;;;;;;;;;;;25.70;39.40;;;20.60;47.63;95477.25;4952968;28;19918;-52
2023/07/03 07:47:55;;;;;;;;;;;25.90;39.50;;;20.70;47.99;95480.34;4952552;28;19964;-51
2023/07/03 07:50:21;;;;;;;;;;;25.90;39.20;;;20.69;47.25;95473.38;4950934;28;19953;-51
2023/07/03 07:52:47;;;;;;;;;;;26.00;39.00;;;20.73;47.51;95470.78;4952785;28;19976;-53
2023/07/03 07:55:13;;;;;;;;;;;26.10;38.80;;;20.95;47.41;95475.81;4951108;28;20008;-50
2023/07/03 07:57:40;;;;;;;;;;;26.20;38.80;;;21.14;46.65;95475.31;4952916;28;19921;-49
2023/07/03 08:00:06;;;;;;;;;;;26.30;38.70;;;21.32;46.58;95477.84;4953799;28;20389;-49
2023/07/03 08:02:32;;;;;;;;;;;26.50;38.70;;;21.41;45.82;95482.06;4955960;28;20370;-49
2023/07/03 08:04:58;;;;;;;;;;;26.70;38.70;;;21.51;45.86;95477.34;4956789;28;19917;-49
2023/07/03 08:07:24;;;;;;;;;;;26.80;38.60;;;21.65;45.00;95477.81;4955477;28;19916;-49
2023/07/03 08:09:50;;;;;;;;;;;26.90;38.30;;;21.61;45.17;95469.56;4956368;28;19917;-55
2023/07/03 08:12:15;;;;;;;;;;;27.10;38.00;;;21.61;45.04;95463.34;4956585;28;19950;-52
2023/07/03 08:14:41;;;;;;;;;;;27.30;37.90;;;21.67;45.43;95468.22;4965069;28;19953;-50
2023/07/03 08:17:07;;;;;;;;;;;27.30;37.70;;;21.97;45.44;95465.28;4956669;28;19921;-52
2023/07/03 08:19:33;;;;;;;;;;;27.30;37.80;;;21.94;45.17;95469.47;4955562;28;19945;-50
2023/07/03 08:21:59;;;;;;;;;;;27.40;37.90;;;21.95;44.40;95467.53;4956312;28;19910;-55
2023/07/03 08:24:24;;;;;;;;;;;27.60;37.80;;;22.32;44.54;95468.31;4956502;28;19914;-55
2023/07/03 08:26:52;;;;;;;;;;;27.90;37.30;;;23.05;43.72;95461.06;4955333;28;19916;-56
2023/07/03 08:29:17;;;;;;;;;;;28.60;37.30;;;23.59;42.37;95473.31;4956455;28;19910;-53
2023/07/03 08:31:43;;;;;;;;;;;29.10;37.10;;;23.83;41.16;95472.41;4955027;28;19914;-54
2023/07/03 08:34:10;;;;;;;;;;;29.50;36.40;;;23.97;40.64;95473.53;4956204;28;19917;-50
2023/07/03 08:36:37;;;;;;;;;;;29.70;36.20;;;24.44;39.87;95471.84;4955766;28;19960;-51
2023/07/03 08:39:04;;;;;;;;;;;30.20;35.90;;;25.06;39.05;95478.19;4954568;28;20266;-56
2023/07/03 08:41:36;;;;;;;;;;;30.90;35.70;;;25.44;37.89;95464.88;4956062;28;19949;-56
2023/07/03 08:44:03;;;;;;;;;;;31.60;35.20;;;25.34;38.22;95464.31;4946612;28;19913;-52
2023/07/03 08:46:33;;;;;;;;;;;32.00;34.50;;;25.00;38.77;95466.00;4956085;28;20336;-52
2023/07/03 08:49:04;;;;;;;;;;;32.20;33.90;;;25.01;38.80;95472.22;4951718;28;20008;-53
2023/07/03 08:51:36;;;;;;;;;;;32.30;33.60;;;25.58;38.06;95470.59;4949208;28;19921;-49
2023/07/03 08:54:25;;;;;;;;;;;32.40;33.60;;;25.86;37.73;95466.81;4951649;28;20400;-50
2023/07/03 08:56:54;;;;;;;;;;;32.80;33.40;;;26.03;37.40;95472.50;4969294;28;19921;-53
2023/07/03 08:59:20;;;;;;;;;;;33.00;33.10;;;25.93;38.19;95464.97;4955672;28;19910;-49
2023/07/03 09:02:35;;;;;;;;;;;33.20;32.50;;;25.97;36.89;95467.72;4954099;28;20297;-50
2023/07/03 09:05:35;;;;;;;;;;;33.40;32.50;;;26.22;36.92;95468.88;4952411;28;20357;-50
2023/07/03 09:08:08;;;;;;;;;;;33.60;32.20;;;26.14;36.78;95471.91;4953840;28;19910;-55
2023/07/03 09:10:49;;;;;;;;;;;33.70;32.40;;;25.67;36.58;95471.13;4954144;28;19910;-51
2023/07/03 09:13:36;;;;;;;;;;;33.50;31.90;;;25.19;38.77;95470.66;4949640;28;19918;-53
2023/07/03 09:16:19;;;;;;;;;;;33.20;31.80;;;25.20;38.97;95476.94;4953687;28;19921;-55
2023/07/03 09:19:08;;;;;;;;;;;33.00;31.80;;;25.47;38.58;95469.59;4950697;28;19974;-49
2023/07/03 09:21:37;;;;;;;;;;;32.80;31.80;;;25.68;38.09;95471.94;4944740;28;19957;-51
2023/07/03 09:24:18;;;;;;;;;;;32.80;32.00;;;25.65;37.72;95478.09;4955373;28;20017;-49
2023/07/03 09:27:22;;;;;;;;;;;32.70;31.90;;;25.60;38.28;95476.47;4953144;28;19910;-52
2023/07/03 09:29:49;;;;;;;;;;;32.90;31.60;;;25.89;38.29;95466.84;4960421;28;19914;-50
2023/07/03 09:32:29;;;;;;;;;;;33.20;31.60;;;26.01;37.34;95471.31;4959839;28;19917;-52
2023/07/03 09:35:21;;;;;;;;;;;33.30;31.50;;;26.14;37.30;95469.97;4955371;28;20005;-48
2023/07/03 09:37:51;;;;;;;;;;;33.50;31.70;;;26.08;37.65;95468.69;4944447;28;19914;-50
2023/07/03 09:40:34;;;;;;;;;;;33.50;31.00;;;26.07;37.05;95475.28;4954748;28;19917;-50
2023/07/03 09:43:00;;;;;;;;;;;33.30;31.20;;;25.82;38.00;95474.91;4954042;28;19914;-49
2023/07/03 09:45:34;;;;;;;;;;;33.00;31.30;;;25.53;38.89;95471.66;4954540;28;20373;-48
2023/07/03 09:48:10;;;;;;;;;;;32.60;31.90;;;25.49;38.65;95476.28;4953741;28;19910;-49
2023/07/03 09:50:40;;;;;;;;;;;32.40;31.60;;;25.26;38.82;95470.81;4952329;28;20059;-47
2023/07/03 09:53:05;;;;;;;;;;;32.20;31.70;;;25.32;38.03;95471.28;4954769;28;19988;-47
2023/07/03 09:55:32;;;;;;;;;;;32.10;31.70;;;25.27;39.15;95469.66;4953768;28;19961;-48
2023/07/03 09:57:58;;;;;;;;;;;32.10;31.80;;;25.28;38.77;95476.69;4954995;28;19941;-49
2023/07/03 10:00:26;;;;;;;;;;;32.10;32.10;;;25.22;38.72;95475.41;4953260;28;19921;-49
2023/07/03 10:02:57;;;;;;;;;;;32.00;32.00;;;25.52;38.55;95470.09;4953343;28;20000;-50
2023/07/03 10:05:32;;;;;;;;;;;32.00;32.10;;;25.75;37.71;95472.81;4954821;28;20325;-52
2023/07/03 10:08:06;;;;;;;;;;;32.00;32.20;;;25.84;38.46;95473.38;4953882;28;19910;-51
2023/07/03 10:10:34;;;;;;;;;;;32.10;32.20;;;26.03;38.52;95466.28;4953303;28;19910;-52
2023/07/03 10:13:31;;;;;;;;;;;32.20;32.10;;;25.76;37.77;95479.88;4950696;28;19914;-53
2023/07/03 10:16:00;;;;;;;;;;;32.40;32.00;;;25.77;37.79;95478.72;4952979;28;19918;-53
2023/07/03 10:18:37;;;;;;;;;;;32.40;31.80;;;25.86;38.47;95469.53;4953328;28;20348;-51
2023/07/03 10:21:10;;;;;;;;;;;32.60;31.40;;;25.97;37.97;95465.00;4952574;28;19997;-48
2023/07/03 10:23:41;;;;;;;;;;;32.60;31.40;;;26.32;37.98;95475.66;4952454;28;19910;-52
2023/07/03 10:26:25;;;;;;;;;;;33.00;31.10;;;26.51;36.86;95472.03;4957656;28;20016;-53
2023/07/03 10:29:21;;;;;;;;;;;33.20;31.20;;;26.64;36.89;95465.22;4953183;28;19910;-53
2023/07/03 10:32:15;;;;;;;;;;;33.10;31.30;;;26.66;37.60;95470.31;4948740;28;19911;-48
2023/07/03 10:34:47;;;;;;;;;;;33.00;31.20;;;26.36;38.63;95479.25;4944418;28;19910;-53
2023/07/03 10:37:22;;;;;;;;;;;32.90;31.20;;;26.36;37.76;95481.97;4952804;28;19961;-52
2023/07/03 10:39:59;;;;;;;;;;;33.10;31.10;;;25.80;38.79;95464.34;4952535;28;19917;-53
2023/07/03 10:42:44;;;;;;;;;;;33.00;30.50;;;25.69;38.88;95454.41;4952994;28;19928;-49
2023/07/03 10:45:14;;;;;;;;;;;32.80;30.50;;;26.06;39.04;95469.06;4960205;28;19918;-49
2023/07/03 10:47:55;;;;;;;;;;;32.90;30.60;;;26.01;38.92;95458.47;4953318;28;19914;-51
2023/07/03 10:50:44;;;;;;;;;;;32.80;30.80;;;26.45;38.79;95459.84;4952761;28;20452;-55
2023/07/03 10:53:37;;;;;;;;;;;33.00;30.60;;;26.75;37.86;95462.59;4953695;28;20013;-56
2023/07/03 10:56:18;;;;;;;;;;;33.20;31.00;;;26.85;37.22;95450.22;4953095;28;19921;-50
2023/07/03 10:59:24;;;;;;;;;;;33.30;30.90;;;26.89;37.92;95454.59;4952093;28;26580;-55
2023/07/03 11:02:22;;;;;;;;;;;33.60;30.70;;;27.14;37.70;95463.09;4952804;28;20286;-54
2023/07/03 11:05:08;;;;;;;;;;;33.90;30.70;;;27.11;36.76;95461.09;4953336;28;20000;-52
2023/07/03 11:08:16;;;;;;;;;;;34.00;30.60;;;27.15;36.89;95451.00;4952463;28;20011;-50
2023/07/03 11:10:56;;;;;;;;;;;34.30;30.00;;;27.37;36.85;95445.75;4952319;28;19976;-49
2023/07/03 11:13:57;;;;;;;;;;;34.40;30.00;;;27.02;37.30;95446.16;4952050;28;19933;-43
2023/07/03 11:16:56;;;;;;;;;;;34.30;29.80;;;27.48;35.88;95443.88;4945493;28;20682;-43
2023/07/03 11:20:05;;;;;;;;;;;34.80;29.60;;;28.07;35.51;95447.53;4949923;28;20335;-44
2023/07/03 11:23:21;;;;;;;;;;;35.20;29.60;;;28.40;35.89;95442.25;4952429;28;19910;-43
2023/07/03 11:26:07;;;;;;;;;;;35.70;29.40;;;28.10;35.92;95433.06;4950491;28;19910;-43
2023/07/03 11:28:51;;;;;;;;;;;35.60;29.40;;;28.47;36.20;95429.41;4951958;28;19910;-43
2023/07/03 11:31:19;;;;;;;;;;;36.00;29.30;;;28.85;34.85;95437.41;4950854;28;19914;-44
2023/07/03 11:33:47;;;;;;;;;;;36.50;29.10;;;28.72;35.27;95448.72;4953289;28;19965;-43